Time;durP1;ratioP1;P1;durP2;ratioP2;P2;SDS_P1;SDS_P2;PMS_P1;PMS_P2;Temp;Humidity;BMP_temperature;BMP_pressure;BME280_temperature;BME280_humidity;BME280_pressure;Samples;Min_cycle;Max_cycle;Signal;HPM_P1;HPM_P2
2023/10/30 00:02:09;;;;;;;3.22;1.50;;;;;;;18.50;54.00;99839.44;5064143;28;20129;-40
2023/10/30 00:04:36;;;;;;;2.60;1.30;;;;;;;18.48;54.52;99833.41;5063831;28;20048;-40
2023/10/30 00:07:03;;;;;;;1.55;1.00;;;;;;;18.46;53.80;99830.91;5062945;28;20128;-41
2023/10/30 00:09:29;;;;;;;3.30;1.15;;;;;;;18.44;53.70;99830.25;5063721;28;20337;-40
2023/10/30 00:11:56;;;;;;;2.92;1.35;;;;;;;18.42;53.97;99840.34;5063609;28;20040;-40
2023/10/30 00:14:23;;;;;;;3.15;1.40;;;;;;;18.41;54.41;99835.13;5066340;28;20495;-40
2023/10/30 00:16:49;;;;;;;3.10;1.40;;;;;;;18.39;54.38;99834.50;5064694;28;20397;-40
2023/10/30 00:19:16;;;;;;;2.92;1.30;;;;;;;18.38;54.01;99816.75;5063040;28;20410;-40
2023/10/30 00:21:43;;;;;;;2.53;1.38;;;;;;;18.36;54.00;99835.69;5065201;28;20037;-40
2023/10/30 00:24:09;;;;;;;3.40;1.45;;;;;;;18.33;54.05;99830.72;5066761;28;20106;-40
2023/10/30 00:26:36;;;;;;;1.77;1.10;;;;;;;18.32;53.95;99822.81;5066867;28;20135;-40
2023/10/30 00:29:03;;;;;;;3.15;1.60;;;;;;;18.29;54.31;99829.41;5065504;28;20099;-40
2023/10/30 00:31:30;;;;;;;4.93;1.50;;;;;;;18.28;54.09;99832.25;5059623;28;20044;-40
2023/10/30 00:33:56;;;;;;;2.33;1.35;;;;;;;18.24;54.33;99832.59;5062568;28;20136;-40
2023/10/30 00:36:23;;;;;;;3.58;1.40;;;;;;;18.24;54.00;99834.44;5057631;28;20075;-40
2023/10/30 00:38:49;;;;;;;2.60;1.30;;;;;;;18.21;53.98;99834.78;5057667;28;20056;-39
2023/10/30 00:41:16;;;;;;;2.42;1.42;;;;;;;18.20;54.16;99842.00;5062621;28;20088;-40
2023/10/30 00:43:43;;;;;;;3.55;1.40;;;;;;;18.19;54.28;99851.09;5063696;28;20045;-40
2023/10/30 00:46:09;;;;;;;3.42;1.20;;;;;;;18.19;54.33;99867.19;5066771;28;20071;-41
2023/10/30 00:48:36;;;;;;;5.97;1.48;;;;;;;18.16;54.04;99872.88;5062531;28;20079;-40
2023/10/30 00:51:03;;;;;;;3.72;1.40;;;;;;;18.16;54.07;99872.06;5062443;28;20337;-39
2023/10/30 00:53:29;;;;;;;3.55;1.40;;;;;;;18.14;54.18;99874.09;5060031;28;20049;-40
2023/10/30 00:55:56;;;;;;;5.00;1.55;;;;;;;18.13;54.71;99877.75;5064356;28;20164;-40
2023/10/30 00:58:22;;;;;;;3.63;1.25;;;;;;;18.12;54.30;99876.94;5064497;28;20436;-40
2023/10/30 01:00:49;;;;;;;4.07;1.48;;;;;;;18.10;54.36;99876.28;5064973;28;20084;-40
2023/10/30 01:03:19;;;;;;;6.30;1.55;;;;;;;18.09;54.67;99881.81;5056905;28;20151;-40
2023/10/30 01:05:46;;;;;;;4.13;1.27;;;;;;;18.09;54.06;99885.38;5059020;28;20048;-40
2023/10/30 01:08:13;;;;;;;3.10;1.45;;;;;;;18.07;54.58;99890.06;5059304;28;20088;-40
2023/10/30 01:10:42;;;;;;;4.20;1.70;;;;;;;18.07;54.54;99900.78;5060024;28;20061;-40
2023/10/30 01:13:09;;;;;;;4.15;1.33;;;;;;;18.07;54.71;99892.72;5061240;28;20212;-41
2023/10/30 01:15:35;;;;;;;5.05;1.50;;;;;;;18.05;54.48;99885.88;5064869;28;20416;-40
2023/10/30 01:18:02;;;;;;;2.65;0.93;;;;;;;18.04;54.64;99892.25;5056184;28;20055;-40
2023/10/30 01:20:30;;;;;;;3.25;1.50;;;;;;;18.04;54.25;99901.13;5058020;28;20144;-40
2023/10/30 01:22:56;;;;;;;2.92;1.67;;;;;;;18.03;53.84;99901.31;5062724;28;20048;-40
2023/10/30 01:25:23;;;;;;;4.93;1.40;;;;;;;18.00;54.26;99895.28;5062559;28;20072;-40
2023/10/30 01:27:49;;;;;;;6.32;1.63;;;;;;;17.99;54.30;99907.03;5060627;28;20048;-40
2023/10/30 01:30:16;;;;;;;2.80;1.35;;;;;;;17.99;54.49;99900.81;5062548;28;20056;-40
2023/10/30 01:32:43;;;;;;;3.15;1.30;;;;;;;17.99;54.33;99908.88;5062725;28;20043;-40
2023/10/30 01:35:10;;;;;;;4.78;1.88;;;;;;;17.98;54.63;99904.53;5062150;28;20059;-40
2023/10/30 01:37:36;;;;;;;3.33;1.60;;;;;;;17.97;54.43;99900.19;5057094;28;20048;-40
2023/10/30 01:40:03;;;;;;;3.28;1.20;;;;;;;17.96;54.19;99906.53;5059239;28;20126;-40
2023/10/30 01:42:30;;;;;;;4.88;1.45;;;;;;;17.95;54.32;99907.56;5060582;28;20076;-40
2023/10/30 01:44:58;;;;;;;3.42;1.20;;;;;;;17.94;54.42;99906.72;5057066;28;20056;-40
2023/10/30 01:47:25;;;;;;;3.58;1.02;;;;;;;17.93;54.36;99910.41;5059304;28;20437;-40
2023/10/30 01:49:52;;;;;;;3.95;1.23;;;;;;;17.93;54.30;99910.41;5063834;28;20048;-40
2023/10/30 01:52:20;;;;;;;4.22;1.42;;;;;;;17.92;54.99;99913.25;5063214;28;20040;-40
2023/10/30 01:54:49;;;;;;;4.00;1.55;;;;;;;17.91;54.46;99912.44;5066920;28;20106;-40
2023/10/30 01:57:18;;;;;;;3.35;1.42;;;;;;;17.91;54.78;99925.00;5062216;28;20056;-40
2023/10/30 01:59:45;;;;;;;3.05;0.95;;;;;;;17.90;55.00;99932.22;5061237;28;20092;-39
2023/10/30 02:02:12;;;;;;;4.18;1.70;;;;;;;17.90;54.82;99915.28;5061062;28;20051;-40
2023/10/30 02:04:39;;;;;;;4.82;1.73;;;;;;;17.90;54.88;99926.03;5061074;28;20052;-40
2023/10/30 02:07:06;;;;;;;4.75;1.52;;;;;;;17.89;54.91;99930.53;5062939;28;20052;-40
2023/10/30 02:09:32;;;;;;;3.55;1.30;;;;;;;17.89;54.81;99927.00;5055546;28;20136;-40
2023/10/30 02:11:59;;;;;;;3.58;1.15;;;;;;;17.88;54.83;99941.44;5056851;28;20052;-40
2023/10/30 02:14:26;;;;;;;2.33;1.10;;;;;;;17.86;54.84;99933.56;5063410;28;20132;-40
2023/10/30 02:16:52;;;;;;;5.18;1.65;;;;;;;17.86;54.88;99928.22;5063837;28;20098;-40
2023/10/30 02:19:24;;;;;;;5.10;1.55;;;;;;;17.85;55.16;99921.19;5064486;28;20499;-40
2023/10/30 02:21:55;;;;;;;3.90;1.40;;;;;;;17.84;55.17;99926.69;5064480;28;20115;-40
2023/10/30 02:24:22;;;;;;;3.60;1.50;;;;;;;17.83;55.33;99938.44;5066733;28;20135;-40
2023/10/30 02:26:49;;;;;;;2.70;1.30;;;;;;;17.83;54.96;99933.09;5067596;28;20398;-40
2023/10/30 02:29:17;;;;;;;2.30;1.30;;;;;;;17.83;54.92;99943.81;5064472;28;20499;-40
2023/10/30 02:31:43;;;;;;;1.95;1.25;;;;;;;17.81;54.96;99944.00;5064246;28;20466;-39
2023/10/30 02:34:11;;;;;;;2.83;1.42;;;;;;;17.81;54.95;99938.63;5061773;28;21014;-39
2023/10/30 02:36:38;;;;;;;4.82;1.23;;;;;;;17.80;55.17;99946.81;5062563;28;20059;-39
2023/10/30 02:39:05;;;;;;;4.80;1.45;;;;;;;17.80;54.98;99952.19;5065129;28;20053;-40
2023/10/30 02:41:31;;;;;;;5.70;1.15;;;;;;;17.79;54.92;99950.53;5065195;28;20080;-40
2023/10/30 02:43:58;;;;;;;3.20;1.30;;;;;;;17.77;54.71;99942.66;5062537;28;20048;-40
2023/10/30 02:46:26;;;;;;;4.55;1.83;;;;;;;17.76;55.02;99944.47;5062456;28;20052;-40
2023/10/30 02:48:53;;;;;;;4.38;1.60;;;;;;;17.76;54.97;99955.19;5061043;28;20037;-40
2023/10/30 02:51:19;;;;;;;2.42;1.35;;;;;;;17.76;55.28;99954.38;5064027;28;20333;-40
2023/10/30 02:53:46;;;;;;;5.70;1.75;;;;;;;17.74;54.95;99959.91;5065141;28;20241;-39
2023/10/30 02:56:13;;;;;;;2.92;1.50;;;;;;;17.73;55.06;99960.91;5069859;28;20109;-40
2023/10/30 02:58:39;;;;;;;3.05;1.30;;;;;;;17.73;55.33;99966.25;5072158;28;20380;-40
2023/10/30 03:01:06;;;;;;;3.85;1.05;;;;;;;17.72;55.32;99974.47;5065204;28;20098;-40
2023/10/30 03:03:32;;;;;;;3.40;1.10;;;;;;;17.71;54.82;99970.94;5062852;28;20041;-40
2023/10/30 03:05:59;;;;;;;3.42;1.65;;;;;;;17.70;55.11;99971.97;5058673;28;20333;-40
2023/10/30 03:08:26;;;;;;;4.80;1.35;;;;;;;17.70;55.05;99971.97;5061889;28;20172;-40
2023/10/30 03:10:53;;;;;;;4.97;1.20;;;;;;;17.69;55.20;99970.31;5059250;28;20109;-40
2023/10/30 03:13:19;;;;;;;6.32;1.58;;;;;;;17.68;55.39;99976.66;5058132;28;20037;-40
2023/10/30 03:15:46;;;;;;;5.70;1.45;;;;;;;17.68;55.10;99979.31;5059362;28;20080;-40
2023/10/30 03:18:13;;;;;;;3.33;1.15;;;;;;;17.67;55.04;99974.16;5064439;28;20049;-40
2023/10/30 03:20:40;;;;;;;4.07;1.52;;;;;;;17.68;55.32;99975.81;5060752;28;20049;-40
2023/10/30 03:23:07;;;;;;;2.40;1.23;;;;;;;17.67;55.24;99969.63;5062271;28;20041;-40
2023/10/30 03:25:34;;;;;;;4.88;1.23;;;;;;;17.66;55.08;99976.00;5060348;28;20072;-40
2023/10/30 03:28:01;;;;;;;3.42;1.35;;;;;;;17.66;54.81;99973.31;5061499;28;20113;-40
2023/10/30 03:30:28;;;;;;;3.70;1.30;;;;;;;17.65;55.33;99982.38;5061485;28;20052;-40
2023/10/30 03:32:54;;;;;;;4.60;1.35;;;;;;;17.66;55.17;99975.16;5070556;28;20310;-40
2023/10/30 03:35:21;;;;;;;3.75;1.33;;;;;;;17.65;55.10;99976.19;5062450;28;20045;-40
2023/10/30 03:37:48;;;;;;;1.83;1.10;;;;;;;17.64;55.08;99971.81;5062299;28;20044;-40
2023/10/30 03:40:14;;;;;;;4.90;1.40;;;;;;;17.63;55.24;99973.66;5060189;28;20060;-40
2023/10/30 03:42:41;;;;;;;2.97;1.33;;;;;;;17.64;55.24;99974.50;5066748;28;20434;-40
2023/10/30 03:45:08;;;;;;;2.95;1.50;;;;;;;17.63;55.39;99968.28;5067019;28;20402;-40
2023/10/30 03:47:34;;;;;;;4.80;1.55;;;;;;;17.62;55.64;99958.59;5064335;28;20050;-40
2023/10/30 03:50:01;;;;;;;3.92;1.05;;;;;;;17.61;55.32;99956.94;5061870;28;20194;-40
2023/10/30 03:52:27;;;;;;;5.07;1.17;;;;;;;17.60;55.52;99960.59;5060322;28;20060;-40
2023/10/30 03:54:54;;;;;;;6.20;1.67;;;;;;;17.60;55.35;99954.41;5063772;28;20048;-40
2023/10/30 03:57:21;;;;;;;3.17;1.20;;;;;;;17.59;55.67;99958.94;5060809;28;20094;-40
2023/10/30 03:59:47;;;;;;;2.70;1.33;;;;;;;17.59;55.40;99958.09;5065913;28;20063;-40
2023/10/30 04:02:14;;;;;;;4.15;1.20;;;;;;;17.59;55.73;99952.75;5068026;28;20052;-40
2023/10/30 04:04:41;;;;;;;2.70;1.27;;;;;;;17.57;55.40;99949.38;5071602;28;20064;-40
2023/10/30 04:07:08;;;;;;;2.78;1.10;;;;;;;17.57;55.67;99952.06;5059602;28;20128;-40
2023/10/30 04:09:34;;;;;;;4.88;1.40;;;;;;;17.56;55.10;99950.41;5060473;28;20041;-40
2023/10/30 04:12:02;;;;;;;4.10;1.27;;;;;;;17.56;55.20;99955.75;5061138;28;20036;-40
2023/10/30 04:14:32;;;;;;;4.32;1.30;;;;;;;17.56;55.24;99961.13;5060877;28;20455;-40
2023/10/30 04:17:02;;;;;;;2.47;1.02;;;;;;;17.56;55.37;99967.31;5063081;28;20236;-40
2023/10/30 04:19:29;;;;;;;5.22;1.65;;;;;;;17.56;55.36;99967.31;5065578;28;20051;-40
2023/10/30 04:21:56;;;;;;;2.90;1.20;;;;;;;17.55;55.69;99960.28;5063168;28;20049;-40
2023/10/30 04:24:23;;;;;;;4.15;1.33;;;;;;;17.54;55.35;99953.25;5059254;28;20056;-40
2023/10/30 04:26:49;;;;;;;3.72;1.35;;;;;;;17.53;55.35;99954.28;5065491;28;20044;-40
2023/10/30 04:29:17;;;;;;;3.13;1.30;;;;;;;17.54;55.64;99955.94;5061399;28;20057;-40
2023/10/30 04:31:43;;;;;;;6.10;1.25;;;;;;;17.53;55.21;99951.59;5060309;28;20059;-40
2023/10/30 04:34:10;;;;;;;2.72;1.20;;;;;;;17.53;55.38;99956.94;5058752;28;20045;-40
2023/10/30 04:36:36;;;;;;;3.53;1.35;;;;;;;17.52;55.12;99956.09;5063747;28;20061;-40
2023/10/30 04:39:03;;;;;;;3.08;0.98;;;;;;;17.52;55.51;99952.59;5067238;28;20071;-40
2023/10/30 04:41:31;;;;;;;2.63;0.95;;;;;;;17.51;55.59;99962.47;5057192;28;20110;-40
2023/10/30 04:43:58;;;;;;;3.53;1.42;;;;;;;17.49;55.57;99948.41;5056339;28;20407;-40
2023/10/30 04:46:25;;;;;;;2.97;1.23;;;;;;;17.49;55.37;99945.75;5064554;28;20056;-40
2023/10/30 04:48:51;;;;;;;3.05;1.27;;;;;;;17.50;55.12;99941.22;5063204;28;20091;-40
2023/10/30 04:51:18;;;;;;;5.28;1.63;;;;;;;17.48;55.41;99948.56;5058954;28;20076;-40
2023/10/30 04:53:45;;;;;;;5.00;1.60;;;;;;;17.48;55.29;99948.56;5062354;28;20049;-41
2023/10/30 04:56:11;;;;;;;3.05;1.40;;;;;;;17.48;55.54;99943.22;5059686;28;20129;-40
2023/10/30 04:58:38;;;;;;;2.42;1.02;;;;;;;17.48;55.70;99948.56;5060529;28;20056;-40
2023/10/30 05:01:08;;;;;;;3.13;1.38;;;;;;;17.46;55.85;99948.75;5056050;28;20056;-40
2023/10/30 05:03:36;;;;;;;3.22;1.25;;;;;;;17.47;55.79;99952.28;5061315;28;20106;-40
2023/10/30 05:06:04;;;;;;;4.43;1.45;;;;;;;17.46;55.58;99955.97;5060077;28;20140;-40
2023/10/30 05:08:31;;;;;;;5.15;1.65;;;;;;;17.46;55.51;99953.28;5068255;28;20052;-40
2023/10/30 05:11:02;;;;;;;4.10;1.50;;;;;;;17.44;55.61;99955.28;5063363;28;20048;-41
2023/10/30 05:13:29;;;;;;;4.60;1.35;;;;;;;17.44;55.74;99979.41;5059590;28;20052;-40
2023/10/30 05:15:56;;;;;;;4.97;1.38;;;;;;;17.43;55.39;99973.19;5061633;28;20044;-40
2023/10/30 05:18:25;;;;;;;5.55;1.38;;;;;;;17.42;55.55;99960.81;5060745;28;20076;-40
2023/10/30 05:20:51;;;;;;;6.40;2.38;;;;;;;17.41;55.37;99955.66;5061142;28;20041;-40
2023/10/30 05:23:18;;;;;;;3.33;1.30;;;;;;;17.41;55.51;99959.16;5058222;28;20049;-40
2023/10/30 05:25:45;;;;;;;4.68;1.50;;;;;;;17.42;55.53;99954.63;5055448;28;20059;-40
2023/10/30 05:28:12;;;;;;;4.28;1.63;;;;;;;17.41;55.33;99950.28;5061309;28;20059;-40
2023/10/30 05:30:39;;;;;;;3.03;1.10;;;;;;;17.40;55.39;99956.63;5065264;28;20048;-40
2023/10/30 05:33:06;;;;;;;6.80;1.65;;;;;;;17.40;55.90;99945.91;5065411;28;20394;-40
2023/10/30 05:35:33;;;;;;;3.63;1.30;;;;;;;17.39;55.59;99941.56;5060685;28;20045;-40
2023/10/30 05:37:59;;;;;;;4.88;1.35;;;;;;;17.40;55.74;99948.59;5062946;28;20092;-40
2023/10/30 05:40:26;;;;;;;3.97;1.65;;;;;;;17.38;55.33;99945.28;5060724;28;20309;-40
2023/10/30 05:42:53;;;;;;;4.60;1.50;;;;;;;17.38;55.39;99961.34;5062325;28;20136;-40
2023/10/30 05:45:19;;;;;;;6.75;1.40;;;;;;;17.39;55.46;99954.97;5061725;28;20139;-40
2023/10/30 05:47:47;;;;;;;4.22;1.30;;;;;;;17.38;55.30;99953.31;5055996;28;20044;-39
2023/10/30 05:50:14;;;;;;;4.45;1.55;;;;;;;17.37;55.49;99957.84;5056863;28;20351;-40
2023/10/30 05:52:40;;;;;;;2.90;1.20;;;;;;;17.38;55.30;99955.97;5058330;28;20385;-40
2023/10/30 05:55:08;;;;;;;2.80;1.45;;;;;;;17.37;55.75;99948.97;5060486;28;20138;-40
2023/10/30 05:57:37;;;;;;;4.03;1.35;;;;;;;17.36;55.23;99949.94;5058409;28;20045;-39
2023/10/30 06:00:05;;;;;;;2.83;1.23;;;;;;;17.36;55.86;99963.34;5061345;28;20047;-40
2023/10/30 06:02:32;;;;;;;4.45;1.30;;;;;;;17.36;55.61;99961.50;5057916;28;20471;-40
2023/10/30 06:04:59;;;;;;;4.97;1.80;;;;;;;17.36;55.40;99955.31;5063705;28;20464;-40
2023/10/30 06:07:25;;;;;;;5.63;1.35;;;;;;;17.36;55.89;99949.94;5063738;28;20059;-40
2023/10/30 06:09:53;;;;;;;3.45;1.17;;;;;;;17.35;55.41;99951.78;5057465;28;20106;-40
2023/10/30 06:12:20;;;;;;;4.30;1.27;;;;;;;17.35;55.53;99949.13;5057615;28;20045;-40
2023/10/30 06:14:47;;;;;;;5.35;1.80;;;;;;;17.34;55.80;99965.38;5062493;28;20060;-40
2023/10/30 06:17:14;;;;;;;4.53;1.42;;;;;;;17.34;55.45;99976.09;5063495;28;20140;-40
2023/10/30 06:19:41;;;;;;;5.00;1.83;;;;;;;17.33;55.46;99975.25;5063267;28;20067;-40
2023/10/30 06:22:08;;;;;;;3.92;1.45;;;;;;;17.32;55.79;99975.41;5057680;28;20635;-40
2023/10/30 06:24:34;;;;;;;4.03;1.60;;;;;;;17.32;56.04;99970.88;5052914;28;20131;-39
2023/10/30 06:27:01;;;;;;;4.18;1.55;;;;;;;17.32;55.55;99970.88;5058566;28;20483;-40
2023/10/30 06:29:27;;;;;;;5.40;1.45;;;;;;;17.32;56.03;99980.75;5057343;28;20040;-40
2023/10/30 06:31:55;;;;;;;3.13;1.73;;;;;;;17.31;55.26;99989.81;5058527;28;20394;-39
2023/10/30 06:34:21;;;;;;;6.85;1.90;;;;;;;17.29;55.71;99995.34;5057262;28;20071;-40
2023/10/30 06:36:48;;;;;;;7.57;1.83;;;;;;;17.30;55.49;99994.34;5063756;28;20102;-40
2023/10/30 06:39:19;;;;;;;5.32;2.20;;;;;;;17.31;55.78;100000.53;5054170;28;20045;-40
2023/10/30 06:41:54;;;;;;;2.92;1.30;;;;;;;17.29;55.62;99987.31;5061172;28;20059;-40
2023/10/30 06:44:22;;;;;;;5.18;1.50;;;;;;;17.31;55.86;99989.81;5062409;28;20052;-40
2023/10/30 06:46:50;;;;;;;4.38;1.10;;;;;;;17.30;55.80;99999.69;5059195;28;20060;-39
2023/10/30 06:49:17;;;;;;;4.68;1.58;;;;;;;17.30;55.61;100007.72;5063211;28;20083;-39
2023/10/30 06:51:44;;;;;;;4.25;1.33;;;;;;;17.31;55.66;100017.41;5057509;28;20063;-39
2023/10/30 06:54:12;;;;;;;4.00;1.20;;;;;;;17.29;55.64;100003.38;5055135;28;20068;-40
2023/10/30 06:56:39;;;;;;;2.10;1.17;;;;;;;17.31;55.65;100005.88;5056908;28;20126;-40
2023/10/30 06:59:06;;;;;;;3.30;1.50;;;;;;;17.31;55.87;99989.81;5054992;28;20095;-40
2023/10/30 07:01:43;;;;;;;4.63;1.45;;;;;;;17.29;55.99;99998.03;5060474;28;20098;-40
2023/10/30 07:04:11;;;;;;;6.50;1.60;;;;;;;17.30;55.82;100014.94;5061204;28;20049;-40
2023/10/30 07:06:38;;;;;;;3.08;1.40;;;;;;;17.31;56.01;100013.91;5061610;28;20059;-40
2023/10/30 07:09:08;;;;;;;4.80;1.67;;;;;;;17.31;55.93;100020.09;5061727;28;20430;-40
2023/10/30 07:11:39;;;;;;;4.25;1.67;;;;;;;17.30;55.81;100018.44;5068299;28;20045;-40
2023/10/30 07:14:08;;;;;;;3.72;1.30;;;;;;;17.31;55.32;100019.25;5064546;28;20096;-40
2023/10/30 07:16:35;;;;;;;2.90;1.48;;;;;;;17.31;56.18;100029.97;5065457;28;20056;-40
2023/10/30 07:19:15;;;;;;;4.70;1.52;;;;;;;17.31;55.86;100028.13;5063331;28;20080;-40
2023/10/30 07:21:42;;;;;;;4.43;1.75;;;;;;;17.31;56.24;100022.78;5062457;28;20052;-39
2023/10/30 07:24:12;;;;;;;3.85;1.70;;;;;;;17.31;55.78;100029.97;5061953;28;20173;-40
2023/10/30 07:26:38;;;;;;;4.10;1.67;;;;;;;17.30;55.84;100037.19;5062821;28;20138;-40
2023/10/30 07:29:05;;;;;;;3.22;1.35;;;;;;;17.32;56.08;100037.00;5062224;28;20428;-40
2023/10/30 07:31:31;;;;;;;4.18;1.55;;;;;;;17.33;56.02;100044.06;5060550;28;20129;-40
2023/10/30 07:33:58;;;;;;;4.65;1.60;;;;;;;17.31;55.66;100051.41;5060418;28;20645;-40
2023/10/30 07:36:26;;;;;;;4.40;1.75;;;;;;;17.33;55.73;100044.06;5059447;28;20045;-40
2023/10/30 07:38:52;;;;;;;5.10;1.58;;;;;;;17.33;56.07;100044.06;5061360;28;20060;-40
2023/10/30 07:41:19;;;;;;;3.17;1.63;;;;;;;17.34;55.77;100032.31;5060469;28;20080;-40
2023/10/30 07:43:47;;;;;;;5.60;1.95;;;;;;;17.34;56.03;100046.56;5069192;28;20048;-40
2023/10/30 07:46:14;;;;;;;4.32;1.45;;;;;;;17.35;55.78;100058.09;5065437;28;20150;-40
2023/10/30 07:48:41;;;;;;;4.47;1.70;;;;;;;17.36;55.99;100057.91;5065533;28;20139;-40
2023/10/30 07:51:08;;;;;;;3.67;1.73;;;;;;;17.36;56.23;100062.44;5061718;28;20135;-40
2023/10/30 07:53:34;;;;;;;6.10;1.65;;;;;;;17.37;55.73;100073.00;5061464;28;20459;-40
2023/10/30 07:56:01;;;;;;;4.88;1.50;;;;;;;17.39;55.90;100078.19;5061927;28;20049;-40
2023/10/30 07:58:28;;;;;;;3.90;1.70;;;;;;;17.40;55.72;100088.72;5060757;28;20058;-40
2023/10/30 08:00:54;;;;;;;4.88;1.50;;;;;;;17.42;55.64;100088.56;5061331;28;20350;-39
2023/10/30 08:03:24;;;;;;;3.75;1.50;;;;;;;17.43;55.83;100096.44;5064208;28;20068;-40
2023/10/30 08:05:51;;;;;;;5.43;1.70;;;;;;;17.45;55.80;100090.94;5060951;28;20041;-40
2023/10/30 08:08:18;;;;;;;5.05;1.65;;;;;;;17.46;55.69;100073.84;5060306;28;20052;-40
2023/10/30 08:10:46;;;;;;;7.32;1.88;;;;;;;17.45;55.63;100067.66;5061622;28;20057;-40
2023/10/30 08:13:12;;;;;;;6.85;2.03;;;;;;;17.47;55.71;100064.78;5062990;28;20045;-40
2023/10/30 08:15:39;;;;;;;5.47;1.67;;;;;;;17.47;55.40;100062.94;5066060;28;20329;-39
2023/10/30 08:18:06;;;;;;;6.45;2.00;;;;;;;17.48;55.64;100045.84;5065147;28;20127;-40
2023/10/30 08:20:32;;;;;;;6.47;2.67;;;;;;;17.49;55.59;100042.19;5064442;28;20048;-40
2023/10/30 08:22:59;;;;;;;10.18;2.55;;;;;;;17.50;55.88;100022.41;5064251;28;20136;-40
2023/10/30 08:25:27;;;;;;;8.15;2.10;;;;;;;17.51;55.70;100016.06;5057132;28;20063;-40
2023/10/30 08:27:54;;;;;;;4.72;1.45;;;;;;;17.54;55.66;100017.56;5065603;28;20052;-40
2023/10/30 08:30:21;;;;;;;3.97;1.60;;;;;;;17.53;55.38;100013.22;5061044;28;20080;-40
2023/10/30 08:32:48;;;;;;;8.50;2.17;;;;;;;17.54;55.73;100016.72;5060617;28;20053;-40
2023/10/30 08:35:15;;;;;;;4.63;1.73;;;;;;;17.54;55.33;100033.63;5063452;28;20073;-41
2023/10/30 08:37:41;;;;;;;5.78;1.50;;;;;;;17.55;55.23;100042.50;5060710;28;20129;-40
2023/10/30 08:40:08;;;;;;;5.32;1.67;;;;;;;17.56;55.20;100044.16;5060952;28;20049;-40
2023/10/30 08:42:35;;;;;;;5.32;2.08;;;;;;;17.57;55.58;100051.19;5061811;28;20125;-40
2023/10/30 08:45:03;;;;;;;6.38;2.20;;;;;;;17.57;55.44;100054.75;5064357;28;20048;-40
2023/10/30 08:47:30;;;;;;;4.75;1.70;;;;;;;17.57;55.51;100054.75;5066415;28;20048;-40
2023/10/30 08:49:56;;;;;;;4.38;1.58;;;;;;;17.59;55.43;100062.59;5067560;28;20516;-40
2023/10/30 08:52:23;;;;;;;5.57;1.63;;;;;;;17.59;55.43;100063.44;5060046;28;20166;-40
2023/10/30 08:54:50;;;;;;;6.55;1.98;;;;;;;17.59;55.36;100065.28;5062042;28;20040;-40
2023/10/30 08:57:19;;;;;;;4.63;2.03;;;;;;;17.59;55.59;100063.44;5061880;28;20498;-40
2023/10/30 08:59:46;;;;;;;6.25;2.03;;;;;;;17.60;55.32;100073.13;5058230;28;20132;-39
2023/10/30 09:02:13;;;;;;;6.13;2.08;;;;;;;17.61;55.49;100066.78;5061522;28;20051;-40
2023/10/30 09:04:40;;;;;;;7.53;1.92;;;;;;;17.60;55.42;100065.09;5061374;28;20044;-40
2023/10/30 09:07:07;;;;;;;4.82;1.75;;;;;;;17.61;55.46;100061.44;5059888;28;20465;-40
2023/10/30 09:09:34;;;;;;;2.33;1.45;;;;;;;17.61;55.40;100058.75;5060965;28;20051;-40
2023/10/30 09:12:01;;;;;;;3.92;2.05;;;;;;;17.62;55.47;100059.59;5056510;28;20052;-40
2023/10/30 09:14:27;;;;;;;4.75;1.60;;;;;;;17.61;55.63;100052.53;5060261;28;20432;-40
2023/10/30 09:16:54;;;;;;;6.45;1.83;;;;;;;17.62;55.47;100064.94;5062567;28;20135;-40
2023/10/30 09:19:21;;;;;;;8.63;2.38;;;;;;;17.62;55.19;100065.78;5062519;28;20080;-40
2023/10/30 09:21:47;;;;;;;4.78;1.80;;;;;;;17.62;55.57;100081.03;5066681;28;20139;-40
2023/10/30 09:24:14;;;;;;;5.80;2.08;;;;;;;17.64;55.71;100081.69;5061551;28;20107;-40
2023/10/30 09:26:41;;;;;;;3.50;1.40;;;;;;;17.64;55.29;100077.16;5060877;28;20424;-40
2023/10/30 09:29:08;;;;;;;4.90;1.92;;;;;;;17.64;55.62;100071.78;5063237;28;20053;-40
2023/10/30 09:31:34;;;;;;;7.13;2.15;;;;;;;17.65;55.60;100073.50;5059197;28;20052;-40
2023/10/30 09:34:01;;;;;;;5.13;1.92;;;;;;;17.64;55.78;100071.78;5060558;28;20090;-40
2023/10/30 09:36:28;;;;;;;6.93;1.77;;;;;;;17.65;55.35;100076.16;5063072;28;20048;-40
2023/10/30 09:38:54;;;;;;;4.53;1.90;;;;;;;17.65;55.50;100072.66;5064562;28;20044;-40
2023/10/30 09:41:22;;;;;;;4.72;1.90;;;;;;;17.65;55.50;100084.22;5061417;28;20159;-40
2023/10/30 09:43:51;;;;;;;5.13;1.70;;;;;;;17.65;55.51;100068.13;5057450;28;20080;-40
2023/10/30 09:46:27;;;;;;;5.15;1.80;;;;;;;17.66;55.33;100075.16;5054652;28;20080;-40
2023/10/30 09:48:55;;;;;;;6.40;1.98;;;;;;;17.66;55.65;100068.97;5057801;28;20048;-40
2023/10/30 09:51:23;;;;;;;5.72;1.80;;;;;;;17.67;55.40;100065.25;5061452;28;20049;-40
2023/10/30 09:53:53;;;;;;;3.95;1.77;;;;;;;17.66;55.25;100060.91;5065757;28;20416;-40
2023/10/30 09:56:20;;;;;;;4.95;2.00;;;;;;;17.67;55.64;100068.78;5064755;28;20309;-40
2023/10/30 09:58:48;;;;;;;4.97;1.70;;;;;;;17.67;55.53;100070.63;5061181;28;20045;-41
2023/10/30 10:01:15;;;;;;;9.20;2.05;;;;;;;17.68;55.34;100062.41;5058441;28;20081;-40
2023/10/30 10:03:41;;;;;;;6.30;1.30;;;;;;;17.68;55.78;100070.44;5060881;28;20589;-40
2023/10/30 10:06:08;;;;;;;4.43;2.05;;;;;;;17.69;55.45;100069.47;5057498;28;20141;-40
2023/10/30 10:08:38;;;;;;;5.40;1.88;;;;;;;17.70;55.53;100065.75;5060481;28;20341;-40
2023/10/30 10:11:08;;;;;;;6.32;2.17;;;;;;;17.71;55.26;100067.44;5059361;28;20267;-40
2023/10/30 10:13:37;;;;;;;4.68;1.85;;;;;;;17.72;55.74;100063.72;5059911;28;20041;-40
2023/10/30 10:16:25;;;;;;;6.65;1.90;;;;;;;17.79;55.58;100055.88;5062701;28;20048;-40
2023/10/30 10:18:52;;;;;;;3.90;1.63;;;;;;;17.89;55.64;100044.97;5059812;28;20053;-40
2023/10/30 10:21:21;;;;;;;5.07;1.77;;;;;;;18.00;55.20;100044.59;5062564;28;20494;-40
2023/10/30 10:23:48;;;;;;;5.03;1.80;;;;;;;18.11;54.75;100049.59;5063893;28;20076;-40
2023/10/30 10:26:15;;;;;;;4.10;1.30;;;;;;;18.22;54.99;100046.53;5061484;28;20049;-40
2023/10/30 10:28:46;;;;;;;5.82;1.50;;;;;;;18.33;54.62;100034.59;5061963;28;20128;-40
2023/10/30 10:31:14;;;;;;;4.20;1.95;;;;;;;18.44;54.51;100038.72;5062676;28;20097;-41
2023/10/30 10:33:41;;;;;;;4.32;1.45;;;;;;;18.55;54.30;100040.16;5059354;28;20323;-43
2023/10/30 10:36:11;;;;;;;4.43;1.40;;;;;;;18.66;54.49;100031.72;5062173;28;20089;-40
2023/10/30 10:38:37;;;;;;;4.68;1.52;;;;;;;18.75;53.80;100022.63;5062884;28;20372;-40
2023/10/30 10:41:04;;;;;;;6.53;1.70;;;;;;;18.85;54.00;100025.88;5065797;28;20048;-40
2023/10/30 10:43:31;;;;;;;7.40;1.70;;;;;;;18.93;53.82;100020.47;5061657;28;20084;-40
2023/10/30 10:45:59;;;;;;;3.88;1.55;;;;;;;19.02;53.83;100015.06;5065537;28;20093;-41
2023/10/30 10:48:27;;;;;;;4.47;1.33;;;;;;;19.09;54.12;100008.75;5062413;28;20048;-40
2023/10/30 10:50:58;;;;;;;6.00;2.00;;;;;;;19.16;53.81;100023.13;5068239;28;20131;-40
2023/10/30 10:53:27;;;;;;;4.75;1.60;;;;;;;19.22;53.31;100014.38;5062011;28;20132;-40
2023/10/30 10:56:04;;;;;;;3.03;1.25;;;;;;;19.30;53.16;100015.31;5064578;28;20428;-40
2023/10/30 10:58:42;;;;;;;4.85;1.67;;;;;;;19.37;53.61;100010.84;5064195;28;20052;-40
2023/10/30 11:01:19;;;;;;;7.60;1.50;;;;;;;19.42;53.55;100008.47;5063952;28;20111;-40
2023/10/30 11:03:48;;;;;;;7.13;1.10;;;;;;;19.45;52.72;100008.09;5068934;28;20310;-41
2023/10/30 11:06:16;;;;;;;5.45;1.60;;;;;;;19.48;53.15;100018.47;5060507;28;20336;-40
2023/10/30 11:08:57;;;;;;;3.70;1.23;;;;;;;19.48;53.54;100026.53;5060193;28;20049;-41
2023/10/30 11:11:40;;;;;;;3.10;1.20;;;;;;;19.47;52.70;100031.09;5065146;28;20135;-40
2023/10/30 11:14:48;;;;;;;3.65;1.67;;;;;;;19.43;52.85;100028.94;5059188;28;20060;-40
2023/10/30 11:17:16;;;;;;;4.28;1.45;;;;;;;19.43;52.83;100021.72;5022885;28;20045;-40
2023/10/30 11:19:45;;;;;;;5.00;1.52;;;;;;;19.41;52.87;100034.47;5055128;28;20045;-40
2023/10/30 11:22:32;;;;;;;3.20;1.40;;;;;;;19.37;53.47;100022.44;5060882;28;20052;-40
2023/10/30 11:24:58;;;;;;;2.83;1.42;;;;;;;19.35;53.52;100018.28;5061928;28;20052;-40
2023/10/30 11:27:25;;;;;;;4.57;1.40;;;;;;;19.33;53.12;100020.28;5062411;28;20467;-41
2023/10/30 11:29:56;;;;;;;3.95;1.45;;;;;;;19.31;53.53;100015.13;5062582;28;20322;-40
2023/10/30 11:32:27;;;;;;;4.22;1.30;;;;;;;19.30;53.44;100026.06;5066175;28;20098;-40